sensor_id;sensor_type;location;lat;lon;timestamp;P1;durP1;ratioP1;P2;durP2;ratioP2
2175;SDS011;1094;49.902;10.876;2023-08-24T00:00:45;21.60;;;20.10;;
2175;SDS011;1094;49.902;10.876;2023-08-24T00:03:11;20.83;;;19.07;;
2175;SDS011;1094;49.902;10.876;2023-08-24T00:05:37;21.30;;;19.80;;
2175;SDS011;1094;49.902;10.876;2023-08-24T00:08:06;19.77;;;18.47;;
2175;SDS011;1094;49.902;10.876;2023-08-24T00:10:33;21.23;;;19.50;;
2175;SDS011;1094;49.902;10.876;2023-08-24T00:12:59;19.87;;;18.40;;
2175;SDS011;1094;49.902;10.876;2023-08-24T00:15:25;21.83;;;20.30;;
2175;SDS011;1094;49.902;10.876;2023-08-24T00:17:51;20.90;;;19.13;;
2175;SDS011;1094;49.902;10.876;2023-08-24T00:20:17;32.33;;;20.87;;
2175;SDS011;1094;49.902;10.876;2023-08-24T00:22:44;20.17;;;18.77;;
2175;SDS011;1094;49.902;10.876;2023-08-24T00:25:11;21.03;;;19.57;;
2175;SDS011;1094;49.902;10.876;2023-08-24T00:27:37;20.97;;;19.37;;
2175;SDS011;1094;49.902;10.876;2023-08-24T00:30:03;19.93;;;18.63;;
2175;SDS011;1094;49.902;10.876;2023-08-24T00:32:31;21.77;;;20.17;;
2175;SDS011;1094;49.902;10.876;2023-08-24T00:34:58;21.30;;;19.70;;
2175;SDS011;1094;49.902;10.876;2023-08-24T00:37:24;22.93;;;20.83;;
2175;SDS011;1094;49.902;10.876;2023-08-24T00:39:50;21.40;;;19.80;;
2175;SDS011;1094;49.902;10.876;2023-08-24T00:42:16;20.23;;;18.70;;
2175;SDS011;1094;49.902;10.876;2023-08-24T00:44:43;20.27;;;18.83;;
2175;SDS011;1094;49.902;10.876;2023-08-24T00:47:08;22.13;;;20.43;;
2175;SDS011;1094;49.902;10.876;2023-08-24T00:49:35;21.93;;;20.33;;
2175;SDS011;1094;49.902;10.876;2023-08-24T00:52:01;20.40;;;18.70;;
2175;SDS011;1094;49.902;10.876;2023-08-24T00:54:27;20.40;;;18.73;;
2175;SDS011;1094;49.902;10.876;2023-08-24T00:56:53;21.03;;;19.40;;
2175;SDS011;1094;49.902;10.876;2023-08-24T00:59:19;20.63;;;19.10;;
2175;SDS011;1094;49.902;10.876;2023-08-24T01:01:46;20.90;;;19.30;;
2175;SDS011;1094;49.902;10.876;2023-08-24T01:04:13;20.90;;;19.17;;
2175;SDS011;1094;49.902;10.876;2023-08-24T01:06:39;20.67;;;18.93;;
2175;SDS011;1094;49.902;10.876;2023-08-24T01:09:05;22.20;;;20.40;;
2175;SDS011;1094;49.902;10.876;2023-08-24T01:11:42;22.00;;;19.80;;
2175;SDS011;1094;49.902;10.876;2023-08-24T01:14:19;20.87;;;19.40;;
2175;SDS011;1094;49.902;10.876;2023-08-24T01:16:46;22.00;;;20.00;;
2175;SDS011;1094;49.902;10.876;2023-08-24T01:19:55;20.20;;;18.70;;
2175;SDS011;1094;49.902;10.876;2023-08-24T01:22:05;21.03;;;19.50;;
2175;SDS011;1094;49.902;10.876;2023-08-24T01:24:38;21.50;;;19.90;;
2175;SDS011;1094;49.902;10.876;2023-08-24T01:27:04;21.90;;;20.27;;
2175;SDS011;1094;49.902;10.876;2023-08-24T01:29:30;22.43;;;20.23;;
2175;SDS011;1094;49.902;10.876;2023-08-24T01:31:56;22.43;;;20.63;;
2175;SDS011;1094;49.902;10.876;2023-08-24T01:34:22;21.90;;;19.70;;
2175;SDS011;1094;49.902;10.876;2023-08-24T01:36:48;22.90;;;21.00;;
2175;SDS011;1094;49.902;10.876;2023-08-24T01:39:18;21.90;;;20.10;;
2175;SDS011;1094;49.902;10.876;2023-08-24T01:41:47;21.27;;;19.63;;
2175;SDS011;1094;49.902;10.876;2023-08-24T01:44:14;23.40;;;21.53;;
2175;SDS011;1094;49.902;10.876;2023-08-24T01:46:40;23.90;;;21.80;;
2175;SDS011;1094;49.902;10.876;2023-08-24T01:49:08;21.93;;;20.10;;
2175;SDS011;1094;49.902;10.876;2023-08-24T01:51:35;21.80;;;20.23;;
2175;SDS011;1094;49.902;10.876;2023-08-24T01:54:01;22.93;;;20.80;;
2175;SDS011;1094;49.902;10.876;2023-08-24T01:56:27;22.97;;;20.77;;
2175;SDS011;1094;49.902;10.876;2023-08-24T01:58:53;21.03;;;19.40;;
2175;SDS011;1094;49.902;10.876;2023-08-24T02:01:19;22.63;;;20.83;;
2175;SDS011;1094;49.902;10.876;2023-08-24T02:03:45;23.43;;;21.17;;
2175;SDS011;1094;49.902;10.876;2023-08-24T02:06:11;22.80;;;21.10;;
2175;SDS011;1094;49.902;10.876;2023-08-24T02:08:37;22.20;;;20.27;;
2175;SDS011;1094;49.902;10.876;2023-08-24T02:11:03;22.60;;;20.90;;
2175;SDS011;1094;49.902;10.876;2023-08-24T02:13:29;23.00;;;20.97;;
2175;SDS011;1094;49.902;10.876;2023-08-24T02:16:04;23.10;;;21.03;;
2175;SDS011;1094;49.902;10.876;2023-08-24T02:18:31;24.40;;;22.43;;
2175;SDS011;1094;49.902;10.876;2023-08-24T02:20:57;23.50;;;21.60;;
2175;SDS011;1094;49.902;10.876;2023-08-24T02:23:23;24.60;;;22.70;;
2175;SDS011;1094;49.902;10.876;2023-08-24T02:25:49;24.57;;;22.67;;
2175;SDS011;1094;49.902;10.876;2023-08-24T02:28:15;23.60;;;21.70;;
2175;SDS011;1094;49.902;10.876;2023-08-24T02:30:41;24.23;;;21.73;;
2175;SDS011;1094;49.902;10.876;2023-08-24T02:33:07;23.97;;;21.53;;
2175;SDS011;1094;49.902;10.876;2023-08-24T02:35:33;23.60;;;21.43;;
2175;SDS011;1094;49.902;10.876;2023-08-24T02:37:58;25.10;;;22.70;;
2175;SDS011;1094;49.902;10.876;2023-08-24T02:40:24;33.60;;;27.13;;
2175;SDS011;1094;49.902;10.876;2023-08-24T02:42:50;37.30;;;29.30;;
2175;SDS011;1094;49.902;10.876;2023-08-24T02:45:16;25.53;;;23.10;;
2175;SDS011;1094;49.902;10.876;2023-08-24T02:47:42;24.67;;;22.40;;
2175;SDS011;1094;49.902;10.876;2023-08-24T02:50:08;28.63;;;25.50;;
2175;SDS011;1094;49.902;10.876;2023-08-24T02:52:35;26.33;;;23.63;;
2175;SDS011;1094;49.902;10.876;2023-08-24T02:55:01;28.17;;;25.40;;
2175;SDS011;1094;49.902;10.876;2023-08-24T02:57:27;28.03;;;25.33;;
2175;SDS011;1094;49.902;10.876;2023-08-24T02:59:53;25.10;;;23.00;;
2175;SDS011;1094;49.902;10.876;2023-08-24T03:02:19;25.97;;;23.80;;
2175;SDS011;1094;49.902;10.876;2023-08-24T03:04:45;27.77;;;25.13;;
2175;SDS011;1094;49.902;10.876;2023-08-24T03:07:11;25.63;;;23.10;;
2175;SDS011;1094;49.902;10.876;2023-08-24T03:09:37;29.43;;;24.90;;
2175;SDS011;1094;49.902;10.876;2023-08-24T03:12:03;26.77;;;24.03;;
2175;SDS011;1094;49.902;10.876;2023-08-24T03:14:29;26.50;;;24.00;;
2175;SDS011;1094;49.902;10.876;2023-08-24T03:16:55;26.57;;;23.77;;
2175;SDS011;1094;49.902;10.876;2023-08-24T03:19:21;27.20;;;24.73;;
2175;SDS011;1094;49.902;10.876;2023-08-24T03:21:47;27.53;;;25.17;;
2175;SDS011;1094;49.902;10.876;2023-08-24T03:24:13;24.90;;;22.70;;
2175;SDS011;1094;49.902;10.876;2023-08-24T03:26:38;25.37;;;23.37;;
2175;SDS011;1094;49.902;10.876;2023-08-24T03:29:04;25.57;;;23.37;;
2175;SDS011;1094;49.902;10.876;2023-08-24T03:31:30;25.27;;;22.80;;
2175;SDS011;1094;49.902;10.876;2023-08-24T03:33:56;24.70;;;22.40;;
2175;SDS011;1094;49.902;10.876;2023-08-24T03:36:22;23.60;;;21.80;;
2175;SDS011;1094;49.902;10.876;2023-08-24T03:38:48;24.10;;;22.03;;
2175;SDS011;1094;49.902;10.876;2023-08-24T03:41:14;24.53;;;22.37;;
2175;SDS011;1094;49.902;10.876;2023-08-24T03:43:40;24.17;;;22.17;;
2175;SDS011;1094;49.902;10.876;2023-08-24T03:46:06;25.47;;;23.27;;
2175;SDS011;1094;49.902;10.876;2023-08-24T03:48:32;24.57;;;22.57;;
2175;SDS011;1094;49.902;10.876;2023-08-24T03:50:58;24.20;;;21.90;;
2175;SDS011;1094;49.902;10.876;2023-08-24T03:53:24;25.20;;;23.13;;
2175;SDS011;1094;49.902;10.876;2023-08-24T03:55:50;25.23;;;22.93;;
2175;SDS011;1094;49.902;10.876;2023-08-24T03:58:17;24.10;;;21.90;;
2175;SDS011;1094;49.902;10.876;2023-08-24T04:00:43;24.93;;;22.87;;
2175;SDS011;1094;49.902;10.876;2023-08-24T04:03:09;25.60;;;23.60;;
2175;SDS011;1094;49.902;10.876;2023-08-24T04:05:36;24.30;;;22.30;;
2175;SDS011;1094;49.902;10.876;2023-08-24T04:08:02;24.53;;;22.27;;
2175;SDS011;1094;49.902;10.876;2023-08-24T04:10:29;24.10;;;21.90;;
2175;SDS011;1094;49.902;10.876;2023-08-24T04:12:55;25.87;;;23.27;;
2175;SDS011;1094;49.902;10.876;2023-08-24T04:15:21;24.03;;;22.03;;
2175;SDS011;1094;49.902;10.876;2023-08-24T04:17:47;25.17;;;22.60;;
2175;SDS011;1094;49.902;10.876;2023-08-24T04:20:13;24.33;;;21.93;;
2175;SDS011;1094;49.902;10.876;2023-08-24T04:22:39;24.13;;;21.73;;
2175;SDS011;1094;49.902;10.876;2023-08-24T04:25:05;24.67;;;22.57;;
2175;SDS011;1094;49.902;10.876;2023-08-24T04:27:31;22.73;;;20.97;;
2175;SDS011;1094;49.902;10.876;2023-08-24T04:29:58;21.53;;;19.83;;
2175;SDS011;1094;49.902;10.876;2023-08-24T04:32:24;22.87;;;20.97;;
2175;SDS011;1094;49.902;10.876;2023-08-24T04:34:50;22.37;;;20.43;;
2175;SDS011;1094;49.902;10.876;2023-08-24T04:37:16;23.83;;;22.03;;
2175;SDS011;1094;49.902;10.876;2023-08-24T04:39:41;23.60;;;21.50;;
2175;SDS011;1094;49.902;10.876;2023-08-24T04:42:07;24.03;;;21.67;;
2175;SDS011;1094;49.902;10.876;2023-08-24T04:44:33;24.27;;;22.33;;
2175;SDS011;1094;49.902;10.876;2023-08-24T04:46:59;23.73;;;21.73;;
2175;SDS011;1094;49.902;10.876;2023-08-24T04:49:25;23.97;;;22.07;;
2175;SDS011;1094;49.902;10.876;2023-08-24T04:51:51;23.70;;;21.80;;
2175;SDS011;1094;49.902;10.876;2023-08-24T04:54:17;20.73;;;19.23;;
2175;SDS011;1094;49.902;10.876;2023-08-24T04:56:43;20.80;;;18.73;;
2175;SDS011;1094;49.902;10.876;2023-08-24T04:59:09;18.80;;;17.13;;
2175;SDS011;1094;49.902;10.876;2023-08-24T05:01:35;16.93;;;15.43;;
2175;SDS011;1094;49.902;10.876;2023-08-24T05:04:02;14.80;;;13.50;;
2175;SDS011;1094;49.902;10.876;2023-08-24T05:06:28;15.60;;;14.50;;
2175;SDS011;1094;49.902;10.876;2023-08-24T05:08:54;15.00;;;14.00;;
2175;SDS011;1094;49.902;10.876;2023-08-24T05:11:21;18.93;;;17.63;;
2175;SDS011;1094;49.902;10.876;2023-08-24T05:13:47;20.70;;;19.00;;
2175;SDS011;1094;49.902;10.876;2023-08-24T05:16:13;21.43;;;20.10;;
2175;SDS011;1094;49.902;10.876;2023-08-24T05:18:39;24.00;;;21.80;;
2175;SDS011;1094;49.902;10.876;2023-08-24T05:21:06;26.00;;;23.30;;
2175;SDS011;1094;49.902;10.876;2023-08-24T05:23:32;25.30;;;23.27;;
2175;SDS011;1094;49.902;10.876;2023-08-24T05:25:58;23.77;;;21.73;;
2175;SDS011;1094;49.902;10.876;2023-08-24T05:28:25;23.90;;;22.30;;
2175;SDS011;1094;49.902;10.876;2023-08-24T05:30:54;24.17;;;22.67;;
2175;SDS011;1094;49.902;10.876;2023-08-24T05:33:21;23.80;;;22.30;;
2175;SDS011;1094;49.902;10.876;2023-08-24T05:35:47;24.20;;;22.37;;
2175;SDS011;1094;49.902;10.876;2023-08-24T05:38:13;23.90;;;22.23;;
2175;SDS011;1094;49.902;10.876;2023-08-24T05:40:39;24.57;;;22.90;;
2175;SDS011;1094;49.902;10.876;2023-08-24T05:43:07;23.43;;;22.07;;
2175;SDS011;1094;49.902;10.876;2023-08-24T05:45:33;24.50;;;23.00;;
2175;SDS011;1094;49.902;10.876;2023-08-24T05:47:59;23.43;;;21.87;;
2175;SDS011;1094;49.902;10.876;2023-08-24T05:50:25;23.97;;;22.33;;
2175;SDS011;1094;49.902;10.876;2023-08-24T05:52:51;23.77;;;22.33;;
2175;SDS011;1094;49.902;10.876;2023-08-24T05:55:17;24.63;;;22.70;;
2175;SDS011;1094;49.902;10.876;2023-08-24T05:57:43;24.57;;;22.80;;
2175;SDS011;1094;49.902;10.876;2023-08-24T06:00:09;24.73;;;22.80;;
2175;SDS011;1094;49.902;10.876;2023-08-24T06:02:36;23.37;;;21.90;;
2175;SDS011;1094;49.902;10.876;2023-08-24T06:05:02;23.53;;;22.13;;
2175;SDS011;1094;49.902;10.876;2023-08-24T06:07:28;24.37;;;22.83;;
2175;SDS011;1094;49.902;10.876;2023-08-24T06:09:56;24.37;;;22.67;;
2175;SDS011;1094;49.902;10.876;2023-08-24T06:12:22;23.90;;;22.40;;
2175;SDS011;1094;49.902;10.876;2023-08-24T06:14:48;23.80;;;22.20;;
2175;SDS011;1094;49.902;10.876;2023-08-24T06:17:13;25.40;;;23.30;;
2175;SDS011;1094;49.902;10.876;2023-08-24T06:19:39;25.33;;;23.23;;
2175;SDS011;1094;49.902;10.876;2023-08-24T06:22:06;24.43;;;22.87;;
2175;SDS011;1094;49.902;10.876;2023-08-24T06:24:32;24.37;;;22.87;;
2175;SDS011;1094;49.902;10.876;2023-08-24T06:26:58;24.53;;;22.70;;
2175;SDS011;1094;49.902;10.876;2023-08-24T06:29:24;27.97;;;25.57;;
2175;SDS011;1094;49.902;10.876;2023-08-24T06:31:50;28.57;;;25.63;;
2175;SDS011;1094;49.902;10.876;2023-08-24T06:34:16;24.33;;;22.50;;
2175;SDS011;1094;49.902;10.876;2023-08-24T06:36:42;24.00;;;22.47;;
2175;SDS011;1094;49.902;10.876;2023-08-24T06:39:08;23.30;;;21.70;;
2175;SDS011;1094;49.902;10.876;2023-08-24T06:41:35;23.47;;;21.90;;
2175;SDS011;1094;49.902;10.876;2023-08-24T06:44:01;23.13;;;21.33;;
2175;SDS011;1094;49.902;10.876;2023-08-24T06:46:28;23.03;;;21.23;;
2175;SDS011;1094;49.902;10.876;2023-08-24T06:48:54;23.30;;;21.30;;
2175;SDS011;1094;49.902;10.876;2023-08-24T06:51:20;22.20;;;20.70;;
2175;SDS011;1094;49.902;10.876;2023-08-24T06:53:46;22.13;;;20.53;;
2175;SDS011;1094;49.902;10.876;2023-08-24T06:56:13;22.43;;;21.03;;
2175;SDS011;1094;49.902;10.876;2023-08-24T06:58:43;23.00;;;21.27;;
2175;SDS011;1094;49.902;10.876;2023-08-24T07:01:10;24.00;;;21.70;;
2175;SDS011;1094;49.902;10.876;2023-08-24T07:03:36;23.40;;;21.63;;
2175;SDS011;1094;49.902;10.876;2023-08-24T07:06:02;23.23;;;21.73;;
2175;SDS011;1094;49.902;10.876;2023-08-24T07:08:29;22.23;;;20.60;;
2175;SDS011;1094;49.902;10.876;2023-08-24T07:10:55;22.00;;;20.53;;
2175;SDS011;1094;49.902;10.876;2023-08-24T07:13:21;21.43;;;20.07;;
2175;SDS011;1094;49.902;10.876;2023-08-24T07:15:47;22.33;;;20.60;;
2175;SDS011;1094;49.902;10.876;2023-08-24T07:18:13;21.13;;;19.83;;
2175;SDS011;1094;49.902;10.876;2023-08-24T07:20:39;22.33;;;20.50;;
2175;SDS011;1094;49.902;10.876;2023-08-24T07:23:05;22.37;;;20.40;;
2175;SDS011;1094;49.902;10.876;2023-08-24T07:25:31;21.50;;;19.87;;
2175;SDS011;1094;49.902;10.876;2023-08-24T07:27:56;20.13;;;18.87;;
2175;SDS011;1094;49.902;10.876;2023-08-24T07:30:28;20.80;;;19.20;;
2175;SDS011;1094;49.902;10.876;2023-08-24T07:32:54;20.13;;;18.93;;
2175;SDS011;1094;49.902;10.876;2023-08-24T07:35:20;19.50;;;18.30;;
2175;SDS011;1094;49.902;10.876;2023-08-24T07:37:49;19.90;;;18.57;;
2175;SDS011;1094;49.902;10.876;2023-08-24T07:40:15;19.43;;;18.33;;
2175;SDS011;1094;49.902;10.876;2023-08-24T07:42:47;20.90;;;18.87;;
2175;SDS011;1094;49.902;10.876;2023-08-24T07:45:15;19.60;;;18.30;;
2175;SDS011;1094;49.902;10.876;2023-08-24T07:47:41;18.80;;;17.75;;
2175;SDS011;1094;49.902;10.876;2023-08-24T07:50:08;19.40;;;18.10;;
2175;SDS011;1094;49.902;10.876;2023-08-24T07:52:34;18.92;;;17.83;;
2175;SDS011;1094;49.902;10.876;2023-08-24T07:55:00;19.08;;;17.70;;
2175;SDS011;1094;49.902;10.876;2023-08-24T07:57:28;18.83;;;17.55;;
2175;SDS011;1094;49.902;10.876;2023-08-24T07:59:54;18.25;;;17.15;;
2175;SDS011;1094;49.902;10.876;2023-08-24T08:02:20;18.38;;;17.48;;
2175;SDS011;1094;49.902;10.876;2023-08-24T08:04:46;18.23;;;16.73;;
2175;SDS011;1094;49.902;10.876;2023-08-24T08:07:12;18.35;;;17.15;;
2175;SDS011;1094;49.902;10.876;2023-08-24T08:09:38;17.50;;;16.60;;
2175;SDS011;1094;49.902;10.876;2023-08-24T08:12:04;17.70;;;16.48;;
2175;SDS011;1094;49.902;10.876;2023-08-24T08:14:30;18.02;;;17.13;;
2175;SDS011;1094;49.902;10.876;2023-08-24T08:16:56;17.75;;;16.70;;
2175;SDS011;1094;49.902;10.876;2023-08-24T08:19:22;17.90;;;17.00;;
2175;SDS011;1094;49.902;10.876;2023-08-24T08:21:50;17.90;;;16.90;;
2175;SDS011;1094;49.902;10.876;2023-08-24T08:24:16;19.02;;;17.67;;
2175;SDS011;1094;49.902;10.876;2023-08-24T08:26:42;18.08;;;16.92;;
2175;SDS011;1094;49.902;10.876;2023-08-24T08:29:08;18.15;;;16.73;;
2175;SDS011;1094;49.902;10.876;2023-08-24T08:31:34;17.70;;;16.80;;
2175;SDS011;1094;49.902;10.876;2023-08-24T08:34:00;18.67;;;17.02;;
2175;SDS011;1094;49.902;10.876;2023-08-24T08:36:26;17.65;;;16.75;;
2175;SDS011;1094;49.902;10.876;2023-08-24T08:38:52;17.92;;;16.98;;
2175;SDS011;1094;49.902;10.876;2023-08-24T08:41:21;18.55;;;17.20;;
2175;SDS011;1094;49.902;10.876;2023-08-24T08:43:48;18.95;;;17.65;;
2175;SDS011;1094;49.902;10.876;2023-08-24T08:46:14;18.75;;;17.23;;
2175;SDS011;1094;49.902;10.876;2023-08-24T08:48:41;17.80;;;16.80;;
2175;SDS011;1094;49.902;10.876;2023-08-24T08:51:07;18.52;;;17.30;;
2175;SDS011;1094;49.902;10.876;2023-08-24T08:53:33;18.23;;;17.13;;
2175;SDS011;1094;49.902;10.876;2023-08-24T08:55:59;18.10;;;17.10;;
2175;SDS011;1094;49.902;10.876;2023-08-24T08:58:29;19.20;;;18.00;;
2175;SDS011;1094;49.902;10.876;2023-08-24T09:00:56;20.10;;;18.60;;
2175;SDS011;1094;49.902;10.876;2023-08-24T09:03:25;20.63;;;19.13;;
2175;SDS011;1094;49.902;10.876;2023-08-24T09:05:51;20.47;;;19.27;;
2175;SDS011;1094;49.902;10.876;2023-08-24T09:08:18;20.73;;;19.30;;
2175;SDS011;1094;49.902;10.876;2023-08-24T09:10:44;20.63;;;19.20;;
2175;SDS011;1094;49.902;10.876;2023-08-24T09:13:10;20.40;;;19.20;;
2175;SDS011;1094;49.902;10.876;2023-08-24T09:15:37;19.93;;;18.73;;
2175;SDS011;1094;49.902;10.876;2023-08-24T09:18:03;19.20;;;17.97;;
2175;SDS011;1094;49.902;10.876;2023-08-24T09:20:29;19.63;;;18.43;;
2175;SDS011;1094;49.902;10.876;2023-08-24T09:22:55;19.35;;;18.23;;
2175;SDS011;1094;49.902;10.876;2023-08-24T09:25:24;18.40;;;17.27;;
2175;SDS011;1094;49.902;10.876;2023-08-24T09:28:00;18.70;;;17.30;;
2175;SDS011;1094;49.902;10.876;2023-08-24T09:30:32;20.58;;;18.42;;
2175;SDS011;1094;49.902;10.876;2023-08-24T09:33:02;17.60;;;16.65;;
2175;SDS011;1094;49.902;10.876;2023-08-24T09:35:28;17.50;;;16.33;;
2175;SDS011;1094;49.902;10.876;2023-08-24T09:37:54;17.80;;;16.75;;
2175;SDS011;1094;49.902;10.876;2023-08-24T09:40:23;17.50;;;16.40;;
2175;SDS011;1094;49.902;10.876;2023-08-24T09:42:51;18.00;;;16.85;;
2175;SDS011;1094;49.902;10.876;2023-08-24T09:45:17;18.83;;;17.52;;
2175;SDS011;1094;49.902;10.876;2023-08-24T09:47:49;17.42;;;16.42;;
2175;SDS011;1094;49.902;10.876;2023-08-24T09:50:15;16.85;;;15.80;;
2175;SDS011;1094;49.902;10.876;2023-08-24T09:52:41;17.48;;;16.38;;
2175;SDS011;1094;49.902;10.876;2023-08-24T09:55:09;17.15;;;16.13;;
2175;SDS011;1094;49.902;10.876;2023-08-24T09:57:38;18.50;;;17.00;;
2175;SDS011;1094;49.902;10.876;2023-08-24T10:00:08;17.02;;;16.15;;
2175;SDS011;1094;49.902;10.876;2023-08-24T10:02:49;17.40;;;16.40;;
2175;SDS011;1094;49.902;10.876;2023-08-24T10:05:24;17.08;;;16.00;;
2175;SDS011;1094;49.902;10.876;2023-08-24T10:07:52;17.27;;;16.35;;
2175;SDS011;1094;49.902;10.876;2023-08-24T10:10:21;18.10;;;17.10;;
2175;SDS011;1094;49.902;10.876;2023-08-24T10:12:59;17.15;;;16.25;;
2175;SDS011;1094;49.902;10.876;2023-08-24T10:15:26;16.50;;;15.50;;
2175;SDS011;1094;49.902;10.876;2023-08-24T10:17:53;17.50;;;16.30;;
2175;SDS011;1094;49.902;10.876;2023-08-24T10:20:19;17.05;;;16.05;;
2175;SDS011;1094;49.902;10.876;2023-08-24T10:22:46;17.23;;;16.23;;
2175;SDS011;1094;49.902;10.876;2023-08-24T10:25:12;17.05;;;16.17;;
2175;SDS011;1094;49.902;10.876;2023-08-24T10:27:39;17.70;;;16.70;;
2175;SDS011;1094;49.902;10.876;2023-08-24T10:30:09;17.50;;;16.50;;
2175;SDS011;1094;49.902;10.876;2023-08-24T10:32:35;17.70;;;16.70;;
2175;SDS011;1094;49.902;10.876;2023-08-24T10:35:02;17.55;;;16.48;;
2175;SDS011;1094;49.902;10.876;2023-08-24T10:37:28;17.63;;;16.45;;
2175;SDS011;1094;49.902;10.876;2023-08-24T10:39:56;17.63;;;16.73;;
2175;SDS011;1094;49.902;10.876;2023-08-24T10:42:21;17.90;;;16.90;;
2175;SDS011;1094;49.902;10.876;2023-08-24T10:44:47;17.85;;;16.75;;
2175;SDS011;1094;49.902;10.876;2023-08-24T10:47:20;18.38;;;17.05;;
2175;SDS011;1094;49.902;10.876;2023-08-24T10:52:23;17.30;;;16.50;;
2175;SDS011;1094;49.902;10.876;2023-08-24T10:54:50;18.27;;;17.02;;
2175;SDS011;1094;49.902;10.876;2023-08-24T10:59:46;19.77;;;18.20;;
2175;SDS011;1094;49.902;10.876;2023-08-24T11:02:23;20.13;;;18.80;;
2175;SDS011;1094;49.902;10.876;2023-08-24T11:05:03;19.20;;;18.10;;
2175;SDS011;1094;49.902;10.876;2023-08-24T11:07:30;20.13;;;18.90;;
2175;SDS011;1094;49.902;10.876;2023-08-24T11:09:56;19.43;;;18.33;;
2175;SDS011;1094;49.902;10.876;2023-08-24T11:12:22;20.23;;;18.73;;
2175;SDS011;1094;49.902;10.876;2023-08-24T11:14:48;19.67;;;18.47;;
2175;SDS011;1094;49.902;10.876;2023-08-24T11:17:19;19.30;;;18.00;;
2175;SDS011;1094;49.902;10.876;2023-08-24T11:19:52;18.60;;;17.60;;
2175;SDS011;1094;49.902;10.876;2023-08-24T11:22:22;18.60;;;17.60;;
2175;SDS011;1094;49.902;10.876;2023-08-24T11:24:49;19.98;;;18.48;;
2175;SDS011;1094;49.902;10.876;2023-08-24T11:27:15;19.33;;;17.93;;
2175;SDS011;1094;49.902;10.876;2023-08-24T11:29:41;18.80;;;17.70;;
2175;SDS011;1094;49.902;10.876;2023-08-24T11:32:07;18.90;;;17.70;;
2175;SDS011;1094;49.902;10.876;2023-08-24T11:34:36;19.63;;;18.33;;
2175;SDS011;1094;49.902;10.876;2023-08-24T11:37:03;19.27;;;17.90;;
2175;SDS011;1094;49.902;10.876;2023-08-24T11:39:29;19.77;;;18.30;;
2175;SDS011;1094;49.902;10.876;2023-08-24T11:42:02;18.93;;;17.90;;
2175;SDS011;1094;49.902;10.876;2023-08-24T11:44:29;18.60;;;17.60;;
2175;SDS011;1094;49.902;10.876;2023-08-24T11:46:58;18.40;;;17.30;;
2175;SDS011;1094;49.902;10.876;2023-08-24T11:49:24;18.40;;;17.30;;
2175;SDS011;1094;49.902;10.876;2023-08-24T11:51:51;18.55;;;17.55;;
2175;SDS011;1094;49.902;10.876;2023-08-24T11:54:18;18.42;;;17.17;;
2175;SDS011;1094;49.902;10.876;2023-08-24T11:56:45;18.02;;;17.02;;
2175;SDS011;1094;49.902;10.876;2023-08-24T11:59:15;18.15;;;17.00;;
2175;SDS011;1094;49.902;10.876;2023-08-24T12:01:41;18.20;;;17.00;;
2175;SDS011;1094;49.902;10.876;2023-08-24T12:04:08;17.70;;;16.80;;
2175;SDS011;1094;49.902;10.876;2023-08-24T12:06:34;18.30;;;17.10;;
2175;SDS011;1094;49.902;10.876;2023-08-24T12:09:01;18.33;;;17.33;;
2175;SDS011;1094;49.902;10.876;2023-08-24T12:11:30;19.10;;;17.70;;
2175;SDS011;1094;49.902;10.876;2023-08-24T12:14:00;19.10;;;18.00;;
2175;SDS011;1094;49.902;10.876;2023-08-24T12:16:26;19.03;;;17.93;;
2175;SDS011;1094;49.902;10.876;2023-08-24T12:18:55;19.87;;;18.67;;
2175;SDS011;1094;49.902;10.876;2023-08-24T12:21:24;19.30;;;18.10;;
2175;SDS011;1094;49.902;10.876;2023-08-24T12:24:00;19.70;;;18.40;;
2175;SDS011;1094;49.902;10.876;2023-08-24T12:26:28;18.93;;;17.73;;
2175;SDS011;1094;49.902;10.876;2023-08-24T12:28:55;18.87;;;17.47;;
2175;SDS011;1094;49.902;10.876;2023-08-24T12:31:28;18.50;;;17.40;;
2175;SDS011;1094;49.902;10.876;2023-08-24T12:34:07;18.93;;;17.73;;
2175;SDS011;1094;49.902;10.876;2023-08-24T12:36:37;19.00;;;18.00;;
2175;SDS011;1094;49.902;10.876;2023-08-24T12:39:04;18.90;;;17.63;;
2175;SDS011;1094;49.902;10.876;2023-08-24T12:41:32;19.70;;;18.50;;
2175;SDS011;1094;49.902;10.876;2023-08-24T12:43:58;19.03;;;17.90;;
2175;SDS011;1094;49.902;10.876;2023-08-24T12:46:24;19.73;;;18.30;;
2175;SDS011;1094;49.902;10.876;2023-08-24T12:48:50;19.40;;;18.20;;
2175;SDS011;1094;49.902;10.876;2023-08-24T12:51:16;19.00;;;17.90;;
2175;SDS011;1094;49.902;10.876;2023-08-24T12:53:43;19.50;;;18.23;;
2175;SDS011;1094;49.902;10.876;2023-08-24T12:56:09;19.77;;;18.40;;
2175;SDS011;1094;49.902;10.876;2023-08-24T12:58:35;19.80;;;18.43;;
2175;SDS011;1094;49.902;10.876;2023-08-24T13:01:01;19.23;;;18.10;;
2175;SDS011;1094;49.902;10.876;2023-08-24T13:03:27;19.10;;;18.00;;
2175;SDS011;1094;49.902;10.876;2023-08-24T13:05:53;19.40;;;18.20;;
2175;SDS011;1094;49.902;10.876;2023-08-24T13:08:19;19.40;;;18.23;;
2175;SDS011;1094;49.902;10.876;2023-08-24T13:10:45;18.70;;;17.60;;
2175;SDS011;1094;49.902;10.876;2023-08-24T13:13:11;19.80;;;18.60;;
2175;SDS011;1094;49.902;10.876;2023-08-24T13:15:37;19.30;;;18.20;;
2175;SDS011;1094;49.902;10.876;2023-08-24T13:18:03;20.00;;;18.57;;
2175;SDS011;1094;49.902;10.876;2023-08-24T13:20:29;20.30;;;19.10;;
2175;SDS011;1094;49.902;10.876;2023-08-24T13:22:55;21.80;;;20.30;;
2175;SDS011;1094;49.902;10.876;2023-08-24T13:25:21;20.27;;;19.03;;
2175;SDS011;1094;49.902;10.876;2023-08-24T13:27:49;23.53;;;21.37;;
2175;SDS011;1094;49.902;10.876;2023-08-24T13:30:18;21.60;;;20.20;;
2175;SDS011;1094;49.902;10.876;2023-08-24T13:32:44;21.50;;;19.70;;
2175;SDS011;1094;49.902;10.876;2023-08-24T13:35:10;20.50;;;19.30;;
2175;SDS011;1094;49.902;10.876;2023-08-24T13:37:36;19.93;;;18.70;;
2175;SDS011;1094;49.902;10.876;2023-08-24T13:40:02;22.40;;;20.70;;
2175;SDS011;1094;49.902;10.876;2023-08-24T13:42:29;19.63;;;18.53;;
2175;SDS011;1094;49.902;10.876;2023-08-24T13:44:55;21.23;;;19.90;;
2175;SDS011;1094;49.902;10.876;2023-08-24T13:47:20;20.30;;;19.03;;
2175;SDS011;1094;49.902;10.876;2023-08-24T13:49:47;21.53;;;20.23;;
2175;SDS011;1094;49.902;10.876;2023-08-24T13:52:15;21.00;;;19.80;;
2175;SDS011;1094;49.902;10.876;2023-08-24T13:54:44;20.40;;;19.20;;
2175;SDS011;1094;49.902;10.876;2023-08-24T13:57:10;20.60;;;19.20;;
2175;SDS011;1094;49.902;10.876;2023-08-24T13:59:35;20.60;;;19.10;;
2175;SDS011;1094;49.902;10.876;2023-08-24T14:02:01;20.60;;;19.30;;
2175;SDS011;1094;49.902;10.876;2023-08-24T14:04:28;21.60;;;20.07;;
2175;SDS011;1094;49.902;10.876;2023-08-24T14:06:54;20.30;;;19.20;;
2175;SDS011;1094;49.902;10.876;2023-08-24T14:09:20;20.90;;;19.50;;
2175;SDS011;1094;49.902;10.876;2023-08-24T14:11:46;20.90;;;19.40;;
2175;SDS011;1094;49.902;10.876;2023-08-24T14:14:13;21.87;;;20.30;;
2175;SDS011;1094;49.902;10.876;2023-08-24T14:16:39;21.47;;;20.10;;
2175;SDS011;1094;49.902;10.876;2023-08-24T14:19:05;22.80;;;21.00;;
2175;SDS011;1094;49.902;10.876;2023-08-24T14:21:31;20.90;;;19.70;;
2175;SDS011;1094;49.902;10.876;2023-08-24T14:23:57;19.90;;;18.80;;
2175;SDS011;1094;49.902;10.876;2023-08-24T14:26:23;20.97;;;19.60;;
2175;SDS011;1094;49.902;10.876;2023-08-24T14:28:53;21.60;;;20.20;;
2175;SDS011;1094;49.902;10.876;2023-08-24T14:31:20;21.37;;;19.97;;
2175;SDS011;1094;49.902;10.876;2023-08-24T14:33:46;20.80;;;19.60;;
2175;SDS011;1094;49.902;10.876;2023-08-24T14:36:12;21.10;;;19.60;;